PAJN Airport Information

Runway Information
Runway 08 Length 8457 ft width 150 ft
Elevation 21 ft Threshold 0 ft Heading 105
Runway 26 Length 8457 ft Width 150 ft
Elevation 20 ft Threshold 0 ft Heading 285
Runway 08W Length 4900 ft width 450 ft
Elevation 0 ft Threshold 0 ft Heading 0
Runway 26W Length 4900 ft Width 450 ft
Elevation 0 ft Threshold 0 ft Heading 0
Airport Frequencies
Type ATIS Name ATIS Frequency 135.2 MHZ
Type AWOS Name TWEB Frequency 114 MHZ
Type CNTR Name ANCHORAGE Frequency 133.9 MHZ
Type CTAF Name CTAF Frequency 118.7 MHZ
Type FSS Name RDO Frequency 122.2 MHZ
Type GND Name GND Frequency 121.9 MHZ
Type MISC Name RDO Frequency 122.15 MHZ
Type OPS Name NAT GD OPS Frequency 124.65 MHZ
Type TWR Name TWR Frequency 118.7 MHZ
Type UNIC Name UNICOM Frequency 122.95 MHZ
Airport Navaids
Type NDB Name Coghlan Island Frequency 212 KHZ
Airport Weather Information & NOTAM
ADDS - METARS form results

(0626 UTC 20 April 2018)
Data provider http://aviationweather.gov/adds/metars/
 
METAR text: PAJN 200553Z 09006KT 10SM -RA FEW011 BKN036 OVC065 04/04 A2977 RMK AO2 RAE01B28 SLP080 P0000 60001 T00440039 10072 20044 53021
Conditions at: PAJN (JUNEAU , AK, US) observed 0553 UTC 20 April 2018
Temperature: 4.4°C (40°F)
Dewpoint: 3.9°C (39°F) [RH = 97%]
Pressure (altimeter): 29.77 inches Hg (1008.2 mb)
[Sea-level pressure: 1008.0 mb]
Winds: from the E (90 degrees) at 7 MPH (6 knots; 3.1 m/s)
Visibility: 10 or more miles (16+ km)
Ceiling: 3600 feet AGL
Clouds: few clouds at 1100 feet AGL
broken clouds at 3600 feet AGL
overcast cloud deck at 6500 feet AGL
Weather: -RA  (light rain)

Forecast for: PAJN (JUNEAU , AK, US)
Text: PAJN 200536Z 2006/2106 11010KT P6SM -SHRA FEW010 BKN035 OVC050
Forecast period: 0600 to 2100 UTC 20 April 2018
Forecast type: FROM: standard forecast or significant change
Winds: from the ESE (110 degrees) at 12 MPH (10 knots; 5.2 m/s)
Visibility: 6 or more miles (10+ km)
Ceiling: 3500 feet AGL
Clouds: few clouds at 1000 feet AGL
broken clouds at 3500 feet AGL
overcast cloud deck at 5000 feet AGL
Weather: -SHRA  (light rain showers)
Forecast for: PAJN (JUNEAU , AK, US)
Text: PAJN 200536Z 2006/2106 11010KT P6SM -SHRA FEW010 BKN035 OVC050
Forecast period: 0600 to 2100 UTC 20 April 2018
Forecast type: FROM: standard forecast or significant change
Winds: from the ESE (110 degrees) at 12 MPH (10 knots; 5.2 m/s)
Visibility: 6 or more miles (10+ km)
Ceiling: 3500 feet AGL
Clouds: few clouds at 1000 feet AGL
broken clouds at 3500 feet AGL
overcast cloud deck at 5000 feet AGL
Weather: -SHRA  (light rain showers)
Forecast for: PAJN (JUNEAU , AK, US)
Text: PAJN 200536Z 2006/2106 11010KT P6SM -SHRA FEW010 BKN035 OVC050
Forecast period: 2100 UTC 20 April 2018 to 0300 UTC 21 April 2018
Forecast type: FROM: standard forecast or significant change
Winds: from the SE (130 degrees) at 13 MPH (11 knots; 5.7 m/s)
Visibility: 6 or more miles (10+ km)
Ceiling: 5000 feet AGL
Clouds: broken clouds at 5000 feet AGL
overcast cloud deck at 8000 feet AGL
Weather: VCSH  (showers in vicinity)
Forecast for: PAJN (JUNEAU , AK, US)
Text: PAJN 200536Z 2006/2106 11010KT P6SM -SHRA FEW010 BKN035 OVC050
Forecast period: 2100 UTC 20 April 2018 to 0300 UTC 21 April 2018
Forecast type: FROM: standard forecast or significant change
Winds: from the SE (130 degrees) at 13 MPH (11 knots; 5.7 m/s)
Visibility: 6 or more miles (10+ km)
Ceiling: 5000 feet AGL
Clouds: broken clouds at 5000 feet AGL
overcast cloud deck at 8000 feet AGL
Weather: VCSH  (showers in vicinity)
Forecast for: PAJN (JUNEAU , AK, US)
Text: PAJN 200536Z 2006/2106 11010KT P6SM -SHRA FEW010 BKN035 OVC050
Forecast period: 0300 to 0600 UTC 21 April 2018
Forecast type: FROM: standard forecast or significant change
Winds: from the E (100 degrees) at 6 MPH (5 knots; 2.6 m/s)
Visibility: 6 or more miles (10+ km)
Ceiling: 10000 feet AGL
Clouds: scattered clouds at 5000 feet AGL
broken clouds at 10000 feet AGL
Weather: no significant weather forecast for this period
Forecast for: PAJN (JUNEAU , AK, US)
Text: PAJN 200536Z 2006/2106 11010KT P6SM -SHRA FEW010 BKN035 OVC050
Forecast period: 0300 to 0600 UTC 21 April 2018
Forecast type: FROM: standard forecast or significant change
Winds: from the E (100 degrees) at 6 MPH (5 knots; 2.6 m/s)
Visibility: 6 or more miles (10+ km)
Ceiling: 10000 feet AGL
Clouds: scattered clouds at 5000 feet AGL
broken clouds at 10000 feet AGL
Weather: no significant weather forecast for this period